Time;durP1;ratioP1;P1;durP2;ratioP2;P2;SDS_P1;SDS_P2;PMS_P1;PMS_P2;Temp;Humidity;BMP_temperature;BMP_pressure;BME280_temperature;BME280_humidity;BME280_pressure;Samples;Min_cycle;Max_cycle;Signal;HPM_P1;HPM_P2
2023/12/15 00:02:04;;;;;;;;;;;10.70;99.90;;;;;;5055230;28;20011;-78
2023/12/15 00:04:29;;;;;;;;;;;10.60;99.90;;;;;;5073245;28;20041;-78
2023/12/15 00:06:55;;;;;;;;;;;10.60;99.90;;;;;;5074757;28;19979;-78
2023/12/15 00:09:21;;;;;;;;;;;10.60;99.90;;;;;;5073911;28;19912;-78
2023/12/15 00:11:46;;;;;;;;;;;10.60;99.90;;;;;;5056022;28;20424;-79
2023/12/15 00:14:12;;;;;;;;;;;10.60;99.90;;;;;;5075405;28;19995;-79
2023/12/15 00:16:37;;;;;;;;;;;10.50;99.90;;;;;;5055580;28;19912;-79
2023/12/15 00:19:03;;;;;;;;;;;10.50;99.90;;;;;;5055416;28;19908;-79
2023/12/15 00:21:29;;;;;;;;;;;10.50;99.90;;;;;;5087040;28;20027;-78
2023/12/15 00:23:55;;;;;;;;;;;10.50;99.90;;;;;;5073476;28;20365;-78
2023/12/15 00:26:20;;;;;;;;;;;10.50;99.90;;;;;;5073279;28;19913;-78
2023/12/15 00:28:46;;;;;;;;;;;10.50;99.90;;;;;;5076062;28;19940;-78
2023/12/15 00:31:11;;;;;;;;;;;10.50;99.90;;;;;;5046176;28;19921;-78
2023/12/15 00:33:37;;;;;;;;;;;10.50;99.90;;;;;;5073314;28;20440;-79
2023/12/15 00:36:02;;;;;;;;;;;10.50;99.90;;;;;;5074316;28;19919;-78
2023/12/15 00:38:28;;;;;;;;;;;10.50;99.90;;;;;;5073075;28;20394;-78
2023/12/15 00:40:53;;;;;;;;;;;10.40;99.90;;;;;;5072778;28;19920;-78
2023/12/15 00:43:19;;;;;;;;;;;10.40;99.90;;;;;;5075659;28;19962;-78
2023/12/15 00:45:44;;;;;;;;;;;10.30;99.90;;;;;;5043539;28;20358;-79
2023/12/15 00:48:10;;;;;;;;;;;10.30;99.90;;;;;;5035898;28;20440;-79
2023/12/15 00:50:35;;;;;;;;;;;10.30;99.90;;;;;;5054014;28;19913;-78
2023/12/15 00:53:01;;;;;;;;;;;10.20;99.90;;;;;;5056917;28;20425;-78
2023/12/15 00:55:26;;;;;;;;;;;10.30;99.90;;;;;;5064416;28;19913;-78
2023/12/15 00:57:52;;;;;;;;;;;10.30;99.90;;;;;;5075176;28;19947;-79
2023/12/15 01:00:17;;;;;;;;;;;10.30;99.90;;;;;;5073044;28;19973;-78
2023/12/15 01:02:43;;;;;;;;;;;10.20;99.90;;;;;;5054706;28;19908;-79
2023/12/15 01:05:09;;;;;;;;;;;10.20;99.90;;;;;;5057531;28;19961;-78
2023/12/15 01:07:35;;;;;;;;;;;10.20;99.90;;;;;;5058812;28;19948;-78
2023/12/15 01:10:00;;;;;;;;;;;10.20;99.90;;;;;;5076722;28;20421;-78
2023/12/15 01:12:29;;;;;;;;;;;10.20;99.90;;;;;;5080208;28;19916;-78
2023/12/15 01:14:54;;;;;;;;;;;10.20;99.90;;;;;;5076366;28;20003;-78
2023/12/15 01:17:20;;;;;;;;;;;10.10;99.90;;;;;;5076616;28;19943;-78
2023/12/15 01:19:48;;;;;;;;;;;10.10;99.90;;;;;;5082208;28;20375;-78
2023/12/15 01:22:14;;;;;;;;;;;9.90;99.90;;;;;;5058771;28;20442;-78
2023/12/15 01:24:39;;;;;;;;;;;9.90;99.90;;;;;;5076382;28;19955;-78
2023/12/15 01:27:08;;;;;;;;;;;9.80;99.90;;;;;;5077218;28;20011;-78
2023/12/15 01:29:33;;;;;;;;;;;9.70;99.90;;;;;;5046406;28;20379;-78
2023/12/15 01:31:59;;;;;;;;;;;9.60;99.90;;;;;;5052033;28;19920;-78
2023/12/15 01:34:24;;;;;;;;;;;9.50;99.90;;;;;;5059965;28;19908;-78
2023/12/15 01:36:50;;;;;;;;;;;9.50;99.90;;;;;;5058485;28;20259;-79
2023/12/15 01:39:15;;;;;;;;;;;9.50;99.90;;;;;;5065364;28;19901;-78
2023/12/15 01:41:41;;;;;;;;;;;9.50;99.90;;;;;;5075897;28;19940;-78
2023/12/15 01:44:06;;;;;;;;;;;9.50;99.90;;;;;;5043752;28;20367;-78
2023/12/15 01:46:32;;;;;;;;;;;9.50;99.90;;;;;;5075366;28;19912;-78
2023/12/15 01:48:58;;;;;;;;;;;9.50;99.90;;;;;;5076013;28;19908;-78
2023/12/15 01:51:23;;;;;;;;;;;9.50;99.90;;;;;;5071223;28;20279;-78
2023/12/15 01:53:49;;;;;;;;;;;9.50;99.90;;;;;;5053212;28;19939;-78
2023/12/15 01:56:14;;;;;;;;;;;9.60;99.90;;;;;;5068251;28;19912;-78
2023/12/15 01:58:40;;;;;;;;;;;9.60;99.90;;;;;;5075633;28;19916;-78
2023/12/15 02:01:09;;;;;;;;;;;9.70;99.90;;;;;;5062120;28;20356;-78
2023/12/15 02:03:34;;;;;;;;;;;9.70;99.90;;;;;;5075788;28;19913;-78
2023/12/15 02:06:00;;;;;;;;;;;9.70;99.90;;;;;;5059392;28;19909;-78
2023/12/15 02:08:26;;;;;;;;;;;9.80;99.90;;;;;;5057335;28;19915;-78
2023/12/15 02:10:51;;;;;;;;;;;9.80;99.90;;;;;;5075295;28;19909;-78
2023/12/15 02:13:17;;;;;;;;;;;9.80;99.90;;;;;;5060504;28;19923;-78
2023/12/15 02:15:42;;;;;;;;;;;9.80;99.90;;;;;;5056431;28;19917;-78
2023/12/15 02:18:08;;;;;;;;;;;9.70;99.90;;;;;;5058865;28;20294;-78
2023/12/15 02:20:33;;;;;;;;;;;9.70;99.90;;;;;;5075225;28;20387;-78
2023/12/15 02:22:59;;;;;;;;;;;9.70;99.90;;;;;;5057146;28;20011;-78
2023/12/15 02:25:24;;;;;;;;;;;9.70;99.90;;;;;;5063718;28;19947;-78
2023/12/15 02:27:50;;;;;;;;;;;9.60;99.90;;;;;;5059382;28;19916;-78
2023/12/15 02:30:16;;;;;;;;;;;9.60;99.90;;;;;;5056581;28;20310;-78
2023/12/15 02:32:41;;;;;;;;;;;9.50;99.90;;;;;;5042952;28;19918;-78
2023/12/15 02:35:07;;;;;;;;;;;9.50;99.90;;;;;;5074705;28;19916;-78
2023/12/15 02:37:32;;;;;;;;;;;9.50;99.90;;;;;;5094805;28;19912;-78
2023/12/15 02:39:58;;;;;;;;;;;9.40;99.90;;;;;;5078746;28;20321;-78
2023/12/15 02:42:23;;;;;;;;;;;9.50;99.90;;;;;;5088972;28;19940;-78
2023/12/15 02:44:49;;;;;;;;;;;9.50;99.90;;;;;;5073536;28;20389;-78
2023/12/15 02:47:14;;;;;;;;;;;9.40;99.90;;;;;;5078716;28;19912;-78
2023/12/15 02:49:40;;;;;;;;;;;9.40;99.90;;;;;;5064655;28;19913;-78
2023/12/15 02:52:06;;;;;;;;;;;9.40;99.90;;;;;;5037881;28;19913;-78
2023/12/15 02:54:32;;;;;;;;;;;9.40;99.90;;;;;;5057400;28;19923;-78
2023/12/15 02:56:58;;;;;;;;;;;9.40;99.90;;;;;;5051928;28;19916;-78
2023/12/15 02:59:23;;;;;;;;;;;9.50;99.90;;;;;;5074600;28;20007;-78
2023/12/15 03:01:49;;;;;;;;;;;9.50;99.90;;;;;;5075821;28;19916;-78
2023/12/15 03:04:14;;;;;;;;;;;9.60;99.90;;;;;;5074258;28;20295;-78
2023/12/15 03:06:40;;;;;;;;;;;9.60;99.90;;;;;;5063092;28;19900;-78
2023/12/15 03:09:05;;;;;;;;;;;9.70;99.90;;;;;;5056327;28;19912;-78
2023/12/15 03:11:31;;;;;;;;;;;9.60;99.90;;;;;;5074310;28;19909;-78
2023/12/15 03:13:56;;;;;;;;;;;9.60;99.90;;;;;;5063950;28;19899;-78
2023/12/15 03:16:24;;;;;;;;;;;9.60;99.90;;;;;;5074132;28;20007;-78
2023/12/15 03:18:49;;;;;;;;;;;9.70;99.90;;;;;;5074232;28;19909;-79
2023/12/15 03:21:15;;;;;;;;;;;9.70;99.90;;;;;;5057618;28;20003;-78
2023/12/15 03:23:40;;;;;;;;;;;9.70;99.90;;;;;;5056042;28;19908;-78
2023/12/15 03:26:06;;;;;;;;;;;9.70;99.90;;;;;;5056327;28;19931;-78
2023/12/15 03:28:32;;;;;;;;;;;9.60;99.90;;;;;;5074145;28;20398;-78
2023/12/15 03:30:57;;;;;;;;;;;9.60;99.90;;;;;;5049265;28;19927;-78
2023/12/15 03:33:24;;;;;;;;;;;9.60;99.90;;;;;;5086197;28;20289;-78
2023/12/15 03:35:50;;;;;;;;;;;9.60;99.90;;;;;;5068079;28;19917;-78
2023/12/15 03:38:16;;;;;;;;;;;9.60;99.90;;;;;;5035556;28;19958;-78
2023/12/15 03:40:41;;;;;;;;;;;9.60;99.90;;;;;;5035935;28;20394;-78
2023/12/15 03:43:07;;;;;;;;;;;9.50;99.90;;;;;;5070710;28;19920;-78
2023/12/15 03:45:32;;;;;;;;;;;9.50;99.90;;;;;;5071458;28;20371;-78
2023/12/15 03:47:58;;;;;;;;;;;9.50;99.90;;;;;;5074174;28;19917;-78
2023/12/15 03:50:24;;;;;;;;;;;9.50;99.90;;;;;;5074666;28;19908;-78
2023/12/15 03:52:49;;;;;;;;;;;9.50;99.90;;;;;;5068791;28;20007;-78
2023/12/15 03:55:15;;;;;;;;;;;9.50;99.90;;;;;;5069840;28;19963;-79
2023/12/15 03:57:41;;;;;;;;;;;9.50;99.90;;;;;;5058526;28;19913;-78
2023/12/15 04:00:08;;;;;;;;;;;9.50;99.90;;;;;;5055506;28;19912;-78
2023/12/15 04:02:33;;;;;;;;;;;9.40;99.90;;;;;;5075602;28;19921;-78
2023/12/15 04:04:59;;;;;;;;;;;9.40;99.90;;;;;;5054135;28;19913;-78
2023/12/15 04:07:28;;;;;;;;;;;9.40;99.90;;;;;;5073613;28;19912;-78
2023/12/15 04:09:53;;;;;;;;;;;9.30;99.90;;;;;;5075416;28;19909;-78
2023/12/15 04:12:19;;;;;;;;;;;9.20;99.90;;;;;;5073576;28;19909;-78
2023/12/15 04:14:44;;;;;;;;;;;9.20;99.90;;;;;;5081699;28;19896;-78
2023/12/15 04:17:10;;;;;;;;;;;9.10;99.90;;;;;;5061493;28;19920;-78
2023/12/15 04:19:35;;;;;;;;;;;9.00;99.90;;;;;;5073504;28;19949;-78
2023/12/15 04:22:01;;;;;;;;;;;9.00;99.90;;;;;;5058361;28;19916;-78
2023/12/15 04:24:26;;;;;;;;;;;8.90;99.90;;;;;;5056967;28;19919;-78
2023/12/15 04:26:53;;;;;;;;;;;8.80;99.90;;;;;;5073484;28;20259;-78
2023/12/15 04:29:18;;;;;;;;;;;8.70;99.90;;;;;;5053848;28;19970;-78
2023/12/15 04:31:44;;;;;;;;;;;8.60;99.90;;;;;;5064210;28;19920;-78
2023/12/15 04:34:09;;;;;;;;;;;8.50;99.90;;;;;;5056040;28;19915;-78
2023/12/15 04:36:35;;;;;;;;;;;8.40;99.90;;;;;;5078301;28;20005;-78
2023/12/15 04:39:00;;;;;;;;;;;8.30;99.90;;;;;;5093776;28;19908;-78
2023/12/15 04:41:27;;;;;;;;;;;8.30;99.90;;;;;;5080282;28;19921;-78
2023/12/15 04:43:52;;;;;;;;;;;8.20;99.90;;;;;;5051090;28;19909;-78
2023/12/15 04:46:22;;;;;;;;;;;8.10;99.90;;;;;;5079148;28;19908;-78
2023/12/15 04:48:47;;;;;;;;;;;8.10;99.90;;;;;;5100605;28;19965;-78
2023/12/15 04:51:13;;;;;;;;;;;8.10;99.90;;;;;;5062194;28;19916;-78
2023/12/15 04:53:38;;;;;;;;;;;8.00;99.90;;;;;;5063738;28;19917;-78
2023/12/15 04:56:04;;;;;;;;;;;7.90;99.90;;;;;;5050589;28;19906;-78
2023/12/15 04:58:30;;;;;;;;;;;7.90;99.90;;;;;;5059376;28;20329;-78
2023/12/15 05:00:55;;;;;;;;;;;7.80;99.90;;;;;;5076629;28;19916;-78
2023/12/15 05:03:21;;;;;;;;;;;7.80;99.90;;;;;;5060616;28;19962;-78
2023/12/15 05:05:47;;;;;;;;;;;7.80;99.90;;;;;;5059693;28;19958;-78
2023/12/15 05:08:13;;;;;;;;;;;7.70;99.90;;;;;;5058734;28;19916;-78
2023/12/15 05:10:38;;;;;;;;;;;7.60;99.90;;;;;;5078105;28;20398;-78
2023/12/15 05:13:04;;;;;;;;;;;7.60;99.90;;;;;;5076871;28;19930;-78
2023/12/15 05:15:29;;;;;;;;;;;7.50;99.90;;;;;;5061624;28;19909;-78
2023/12/15 05:17:55;;;;;;;;;;;7.40;99.90;;;;;;5060472;28;20004;-78
2023/12/15 05:20:20;;;;;;;;;;;7.40;99.90;;;;;;5076219;28;20374;-78
2023/12/15 05:22:46;;;;;;;;;;;7.30;99.90;;;;;;5096931;28;19919;-78
2023/12/15 05:25:11;;;;;;;;;;;7.30;99.90;;;;;;5096520;28;19916;-78
2023/12/15 05:27:37;;;;;;;;;;;7.30;99.90;;;;;;5096304;28;19923;-78
2023/12/15 05:30:03;;;;;;;;;;;7.30;99.90;;;;;;5066123;28;19924;-78
2023/12/15 05:32:28;;;;;;;;;;;7.30;99.90;;;;;;5057104;28;19916;-78
2023/12/15 05:34:53;;;;;;;;;;;7.30;99.90;;;;;;5066793;28;19916;-78
2023/12/15 05:37:20;;;;;;;;;;;7.30;99.90;;;;;;5096226;28;19908;-78
2023/12/15 05:39:46;;;;;;;;;;;7.30;99.90;;;;;;5077942;28;19999;-78
2023/12/15 05:42:11;;;;;;;;;;;7.30;99.90;;;;;;5079717;28;19959;-78
2023/12/15 05:44:40;;;;;;;;;;;7.30;99.90;;;;;;5074620;28;19912;-78
2023/12/15 05:47:09;;;;;;;;;;;7.40;99.90;;;;;;5060661;28;19919;-78
2023/12/15 05:49:43;;;;;;;;;;;7.40;99.90;;;;;;5062811;28;20295;-78
2023/12/15 05:52:09;;;;;;;;;;;7.50;99.90;;;;;;5039797;28;19913;-78
2023/12/15 05:54:37;;;;;;;;;;;7.70;99.90;;;;;;5056366;28;19907;-78
2023/12/15 05:57:02;;;;;;;;;;;7.80;99.90;;;;;;5061779;28;19912;-78
2023/12/15 05:59:28;;;;;;;;;;;7.90;99.90;;;;;;5075899;28;20429;-78
2023/12/15 06:01:53;;;;;;;;;;;8.00;99.90;;;;;;5084211;28;20007;-78
2023/12/15 06:04:19;;;;;;;;;;;8.00;99.90;;;;;;5089023;28;19947;-78
2023/12/15 06:06:44;;;;;;;;;;;8.00;99.90;;;;;;5065428;28;19908;-78
2023/12/15 06:09:10;;;;;;;;;;;7.90;99.90;;;;;;5045303;28;19917;-78
2023/12/15 06:11:40;;;;;;;;;;;7.90;99.90;;;;;;5037627;28;19916;-78
2023/12/15 06:14:06;;;;;;;;;;;7.90;99.90;;;;;;5037876;28;19917;-78
2023/12/15 06:16:31;;;;;;;;;;;7.90;99.90;;;;;;5061104;28;19917;-78
2023/12/15 06:18:57;;;;;;;;;;;7.90;99.90;;;;;;5055630;28;19915;-78
2023/12/15 06:21:23;;;;;;;;;;;7.90;99.90;;;;;;5056867;28;19924;-78
2023/12/15 06:23:48;;;;;;;;;;;7.90;99.90;;;;;;5037717;28;20379;-78
2023/12/15 06:26:21;;;;;;;;;;;7.90;99.90;;;;;;5055412;28;19917;-78
2023/12/15 06:28:46;;;;;;;;;;;8.00;99.90;;;;;;5052734;28;19940;-78
2023/12/15 06:31:12;;;;;;;;;;;8.10;99.90;;;;;;5047632;28;19920;-78
2023/12/15 06:33:38;;;;;;;;;;;8.10;99.90;;;;;;5074945;28;19912;-78
2023/12/15 06:36:04;;;;;;;;;;;8.20;99.90;;;;;;5085252;28;20435;-78
2023/12/15 06:38:29;;;;;;;;;;;8.30;99.90;;;;;;5089961;28;19908;-78
2023/12/15 06:40:55;;;;;;;;;;;8.40;99.90;;;;;;5089355;28;19916;-78
2023/12/15 06:43:20;;;;;;;;;;;8.50;99.90;;;;;;5054886;28;20307;-78
2023/12/15 06:45:46;;;;;;;;;;;8.50;99.90;;;;;;5069183;28;19923;-78
2023/12/15 06:48:11;;;;;;;;;;;8.60;99.90;;;;;;5076972;28;19920;-79
2023/12/15 06:50:37;;;;;;;;;;;8.60;99.90;;;;;;5040029;28;19922;-77
2023/12/15 06:53:02;;;;;;;;;;;8.50;99.90;;;;;;5056301;28;20029;-78
2023/12/15 06:55:27;;;;;;;;;;;8.50;99.90;;;;;;5052655;28;19909;-78
2023/12/15 06:57:53;;;;;;;;;;;8.40;99.90;;;;;;5056654;28;20283;-78
2023/12/15 07:00:19;;;;;;;;;;;8.30;99.90;;;;;;5058737;28;19963;-78
2023/12/15 07:02:44;;;;;;;;;;;8.20;99.90;;;;;;5076158;28;20359;-78
2023/12/15 07:05:10;;;;;;;;;;;8.20;99.90;;;;;;5060626;28;20003;-77
2023/12/15 07:07:36;;;;;;;;;;;8.20;99.90;;;;;;5072463;28;20328;-77
2023/12/15 07:10:03;;;;;;;;;;;8.10;99.90;;;;;;5056321;28;19954;-78
2023/12/15 07:12:28;;;;;;;;;;;8.10;99.90;;;;;;5063818;28;20455;-78
2023/12/15 07:14:54;;;;;;;;;;;8.10;99.90;;;;;;5054961;28;19979;-78
2023/12/15 07:17:19;;;;;;;;;;;8.10;99.90;;;;;;5056126;28;19912;-78
2023/12/15 07:19:45;;;;;;;;;;;8.10;99.90;;;;;;5073729;28;19909;-78
2023/12/15 07:22:11;;;;;;;;;;;8.20;99.90;;;;;;5059796;28;19925;-78
2023/12/15 07:24:37;;;;;;;;;;;8.20;99.90;;;;;;5059122;28;19913;-78
2023/12/15 07:27:04;;;;;;;;;;;8.30;99.90;;;;;;5040976;28;19927;-77
2023/12/15 07:29:29;;;;;;;;;;;8.30;99.90;;;;;;5040127;28;19916;-78
2023/12/15 07:31:55;;;;;;;;;;;8.30;99.90;;;;;;5062924;28;19970;-79
2023/12/15 07:34:20;;;;;;;;;;;8.30;99.90;;;;;;5076637;28;19923;-79
2023/12/15 07:36:47;;;;;;;;;;;8.30;99.90;;;;;;5070971;28;19920;-78
2023/12/15 07:39:12;;;;;;;;;;;8.40;99.90;;;;;;5052563;28;20390;-79
2023/12/15 07:41:41;;;;;;;;;;;8.30;99.90;;;;;;5061344;28;19963;-77
2023/12/15 07:44:06;;;;;;;;;;;8.30;99.90;;;;;;5079282;28;19900;-78
2023/12/15 07:46:32;;;;;;;;;;;8.40;99.90;;;;;;5049762;28;19947;-78
2023/12/15 07:49:01;;;;;;;;;;;8.40;99.90;;;;;;5068118;28;20390;-81
2023/12/15 07:51:27;;;;;;;;;;;8.40;99.90;;;;;;5065633;28;19924;-77
2023/12/15 07:53:52;;;;;;;;;;;8.50;99.90;;;;;;5059481;28;19913;-79
2023/12/15 07:56:18;;;;;;;;;;;8.50;99.90;;;;;;5068699;28;19916;-77
2023/12/15 07:58:44;;;;;;;;;;;8.60;99.90;;;;;;5075722;28;19959;-76
2023/12/15 08:01:09;;;;;;;;;;;8.60;99.90;;;;;;5062420;28;20488;-76
2023/12/15 08:03:35;;;;;;;;;;;8.70;99.90;;;;;;5040230;28;19913;-76
2023/12/15 08:06:00;;;;;;;;;;;8.70;99.90;;;;;;5069401;28;19923;-77
2023/12/15 08:08:26;;;;;;;;;;;8.80;99.90;;;;;;5061458;28;20295;-78
2023/12/15 08:10:51;;;;;;;;;;;8.80;99.90;;;;;;5064947;28;19958;-78
2023/12/15 08:13:17;;;;;;;;;;;8.90;99.90;;;;;;5074092;28;19913;-76
2023/12/15 08:15:42;;;;;;;;;;;8.90;99.90;;;;;;5062597;28;19913;-76
2023/12/15 08:18:08;;;;;;;;;;;9.00;99.90;;;;;;5051522;28;19920;-76
2023/12/15 08:20:33;;;;;;;;;;;9.00;99.90;;;;;;5068103;28;20192;-76
2023/12/15 08:22:59;;;;;;;;;;;9.00;99.90;;;;;;5053722;28;20004;-78
2023/12/15 08:25:24;;;;;;;;;;;9.10;99.90;;;;;;5057882;28;20362;-76
2023/12/15 08:27:50;;;;;;;;;;;9.10;99.90;;;;;;5081912;28;19924;-78
2023/12/15 08:30:15;;;;;;;;;;;9.10;99.90;;;;;;5069135;28;20393;-76
2023/12/15 08:32:41;;;;;;;;;;;9.20;99.90;;;;;;5062445;28;19917;-76
2023/12/15 08:35:07;;;;;;;;;;;9.20;99.90;;;;;;5095547;28;19907;-76
2023/12/15 08:37:32;;;;;;;;;;;9.20;99.90;;;;;;5070751;28;19913;-76
2023/12/15 08:39:58;;;;;;;;;;;9.20;99.90;;;;;;5056554;28;19919;-76
2023/12/15 08:42:23;;;;;;;;;;;9.30;99.90;;;;;;5043959;28;19920;-76
2023/12/15 08:44:49;;;;;;;;;;;9.30;99.90;;;;;;5064325;28;19980;-77
2023/12/15 08:47:14;;;;;;;;;;;9.40;99.90;;;;;;5075771;28;19926;-78
2023/12/15 08:49:40;;;;;;;;;;;9.40;99.90;;;;;;5054706;28;19913;-76
2023/12/15 08:52:05;;;;;;;;;;;9.50;99.90;;;;;;5074675;28;19913;-76
2023/12/15 08:54:31;;;;;;;;;;;9.50;99.90;;;;;;5051523;28;19924;-76
2023/12/15 08:56:56;;;;;;;;;;;9.60;99.90;;;;;;5055217;28;19956;-78
2023/12/15 08:59:22;;;;;;;;;;;9.60;99.90;;;;;;5072165;28;19908;-75
2023/12/15 09:01:47;;;;;;;;;;;9.70;99.90;;;;;;5067652;28;19964;-78
2023/12/15 09:04:13;;;;;;;;;;;9.70;99.90;;;;;;5071273;28;19938;-81
2023/12/15 09:06:38;;;;;;;;;;;9.70;99.90;;;;;;5075716;28;19920;-82
2023/12/15 09:09:04;;;;;;;;;;;9.70;99.90;;;;;;5057986;28;20394;-81
2023/12/15 09:11:29;;;;;;;;;;;9.70;99.90;;;;;;5049251;28;19920;-81
2023/12/15 09:13:55;;;;;;;;;;;9.90;99.90;;;;;;5058553;28;20382;-78
2023/12/15 09:16:20;;;;;;;;;;;9.90;99.90;;;;;;5050903;28;19909;-78
2023/12/15 09:18:46;;;;;;;;;;;9.90;99.90;;;;;;5051239;28;19909;-81
2023/12/15 09:21:11;;;;;;;;;;;10.00;99.90;;;;;;5041527;28;19925;-78
2023/12/15 09:23:37;;;;;;;;;;;10.00;99.90;;;;;;5053215;28;19908;-81
2023/12/15 09:26:03;;;;;;;;;;;10.00;99.90;;;;;;5056736;28;20387;-81
2023/12/15 09:28:28;;;;;;;;;;;10.10;99.90;;;;;;5088087;28;19919;-79
2023/12/15 09:30:54;;;;;;;;;;;10.10;99.90;;;;;;5051013;28;19940;-78
2023/12/15 09:33:19;;;;;;;;;;;10.30;99.90;;;;;;5042397;28;19917;-76
2023/12/15 09:35:45;;;;;;;;;;;10.40;99.90;;;;;;5054248;28;20361;-78
2023/12/15 09:38:10;;;;;;;;;;;10.50;99.90;;;;;;5048298;28;19970;-78
2023/12/15 09:40:37;;;;;;;;;;;10.60;99.90;;;;;;5069666;28;19908;-78
2023/12/15 09:43:03;;;;;;;;;;;10.50;99.90;;;;;;5057203;28;19954;-78
2023/12/15 09:45:30;;;;;;;;;;;10.70;99.90;;;;;;5064272;28;20437;-78
2023/12/15 09:47:56;;;;;;;;;;;10.80;99.90;;;;;;5047493;28;19920;-78
2023/12/15 09:50:23;;;;;;;;;;;10.80;99.90;;;;;;5063517;28;20315;-79
2023/12/15 09:52:49;;;;;;;;;;;11.00;99.90;;;;;;5070398;28;20379;-78
2023/12/15 09:55:15;;;;;;;;;;;11.00;99.90;;;;;;5066177;28;19921;-78
2023/12/15 09:57:42;;;;;;;;;;;11.10;99.90;;;;;;5069659;28;19917;-79
2023/12/15 10:00:08;;;;;;;;;;;11.10;99.90;;;;;;5050789;28;19912;-79
2023/12/15 10:02:34;;;;;;;;;;;11.10;99.90;;;;;;5062508;28;19954;-77
2023/12/15 10:05:00;;;;;;;;;;;11.10;99.90;;;;;;5064350;28;19913;-77
2023/12/15 10:07:26;;;;;;;;;;;11.10;99.90;;;;;;5071412;28;19931;-77
2023/12/15 10:09:52;;;;;;;;;;;11.00;99.90;;;;;;5059367;28;19913;-77
2023/12/15 10:12:20;;;;;;;;;;;11.00;99.90;;;;;;5078689;28;19920;-78
2023/12/15 10:14:46;;;;;;;;;;;11.10;99.90;;;;;;5055750;28;19913;-80
2023/12/15 10:17:11;;;;;;;;;;;11.10;99.90;;;;;;5069516;28;19934;-79
2023/12/15 10:19:37;;;;;;;;;;;11.30;99.90;;;;;;5064612;28;19922;-78
2023/12/15 10:22:04;;;;;;;;;;;11.30;99.90;;;;;;5053920;28;19924;-78
2023/12/15 10:24:32;;;;;;;;;;;11.30;99.90;;;;;;5076034;28;19969;-77
2023/12/15 10:27:00;;;;;;;;;;;11.20;99.90;;;;;;5075229;28;19985;-78
2023/12/15 10:29:25;;;;;;;;;;;11.20;99.90;;;;;;5048452;28;19928;-79
2023/12/15 10:31:51;;;;;;;;;;;11.20;99.90;;;;;;5053398;28;19916;-77
2023/12/15 10:34:17;;;;;;;;;;;11.30;99.90;;;;;;5076561;28;19909;-79
2023/12/15 10:36:46;;;;;;;;;;;11.30;99.90;;;;;;5068199;28;20426;-79
2023/12/15 10:39:12;;;;;;;;;;;11.40;99.90;;;;;;5061769;28;19964;-79
2023/12/15 10:41:39;;;;;;;;;;;11.60;99.90;;;;;;5063890;28;20020;-77
2023/12/15 10:44:04;;;;;;;;;;;11.60;99.90;;;;;;5042324;28;19912;-79
2023/12/15 10:46:31;;;;;;;;;;;11.70;99.90;;;;;;5050888;28;19919;-78
2023/12/15 10:48:58;;;;;;;;;;;11.60;99.90;;;;;;5075417;28;19897;-78
2023/12/15 10:51:24;;;;;;;;;;;11.70;99.90;;;;;;5044701;28;20334;-77
2023/12/15 10:53:53;;;;;;;;;;;11.70;99.90;;;;;;5062399;28;19916;-78
2023/12/15 10:56:18;;;;;;;;;;;11.80;99.90;;;;;;5070137;28;20286;-78
2023/12/15 10:58:44;;;;;;;;;;;12.10;99.90;;;;;;5054521;28;19958;-80
2023/12/15 11:01:10;;;;;;;;;;;12.20;99.90;;;;;;5052815;28;19905;-78
2023/12/15 11:03:37;;;;;;;;;;;12.50;99.90;;;;;;5055183;28;20038;-78
2023/12/15 11:06:04;;;;;;;;;;;12.60;99.90;;;;;;5039501;28;20372;-77
2023/12/15 11:08:29;;;;;;;;;;;12.30;99.90;;;;;;5054721;28;19955;-81
2023/12/15 11:10:55;;;;;;;;;;;12.10;99.90;;;;;;5056761;28;20302;-79
2023/12/15 11:13:39;;;;;;;;;;;12.30;99.90;;;;;;5057277;28;19913;-81
2023/12/15 11:16:04;;;;;;;;;;;12.80;99.90;;;;;;5063967;28;19917;-77
2023/12/15 11:18:33;;;;;;;;;;;13.10;99.90;;;;;;5066386;28;19915;-77
2023/12/15 11:20:59;;;;;;;;;;;13.50;99.90;;;;;;5075524;28;19924;-77
2023/12/15 11:23:25;;;;;;;;;;;13.30;99.90;;;;;;5074027;28;20295;-77
2023/12/15 11:25:51;;;;;;;;;;;13.30;99.90;;;;;;5053933;28;20378;-77
2023/12/15 11:28:17;;;;;;;;;;;13.00;99.90;;;;;;5111073;28;19900;-77
2023/12/15 11:30:48;;;;;;;;;;;13.20;99.90;;;;;;5072854;28;20374;-78
2023/12/15 11:33:32;;;;;;;;;;;13.00;99.90;;;;;;5055516;28;19912;-78
2023/12/15 11:36:00;;;;;;;;;;;13.00;99.90;;;;;;5055059;28;19909;-78
2023/12/15 11:38:26;;;;;;;;;;;12.90;99.90;;;;;;5062223;28;19920;-77
2023/12/15 11:40:53;;;;;;;;;;;12.90;99.90;;;;;;5072827;28;20444;-78
2023/12/15 11:43:18;;;;;;;;;;;12.80;99.90;;;;;;5055792;28;20003;-76
2023/12/15 11:45:44;;;;;;;;;;;12.60;99.90;;;;;;5042734;28;19967;-77
2023/12/15 11:48:10;;;;;;;;;;;12.60;99.90;;;;;;5055211;28;19935;-78
2023/12/15 11:50:38;;;;;;;;;;;12.60;99.90;;;;;;5039654;28;19908;-77
2023/12/15 11:53:06;;;;;;;;;;;12.90;99.90;;;;;;5069500;28;20381;-79
2023/12/15 11:55:32;;;;;;;;;;;12.90;99.90;;;;;;5053394;28;20389;-78
2023/12/15 11:57:59;;;;;;;;;;;13.10;99.90;;;;;;5041615;28;19963;-78
2023/12/15 12:00:26;;;;;;;;;;;13.10;99.90;;;;;;5056856;28;20325;-78
2023/12/15 12:02:51;;;;;;;;;;;13.10;99.90;;;;;;5056574;28;19995;-78
2023/12/15 12:05:18;;;;;;;;;;;13.30;99.90;;;;;;5054498;28;19948;-78
2023/12/15 12:07:44;;;;;;;;;;;13.30;99.90;;;;;;5058251;28;20271;-78
2023/12/15 12:10:10;;;;;;;;;;;13.20;99.90;;;;;;5055392;28;19919;-78
2023/12/15 12:12:36;;;;;;;;;;;13.00;99.90;;;;;;5075867;28;19913;-78
2023/12/15 12:15:07;;;;;;;;;;;13.10;99.90;;;;;;5075782;28;19913;-78
2023/12/15 12:17:33;;;;;;;;;;;13.20;99.90;;;;;;5035449;28;19909;-78
2023/12/15 12:20:11;;;;;;;;;;;13.20;99.90;;;;;;5035009;28;20389;-78
2023/12/15 12:22:40;;;;;;;;;;;13.10;99.90;;;;;;5036022;28;19959;-79
2023/12/15 12:25:06;;;;;;;;;;;13.10;99.90;;;;;;5052821;28;19913;-78
2023/12/15 12:27:32;;;;;;;;;;;13.10;99.90;;;;;;5065065;28;19924;-78
2023/12/15 12:30:18;;;;;;;;;;;13.30;99.90;;;;;;5066486;28;19917;-79
2023/12/15 12:32:44;;;;;;;;;;;13.40;99.90;;;;;;5076787;28;19912;-78
2023/12/15 12:35:09;;;;;;;;;;;13.30;99.90;;;;;;5075770;28;19917;-78
2023/12/15 12:37:35;;;;;;;;;;;13.20;99.90;;;;;;5058433;28;19959;-78
2023/12/15 12:40:05;;;;;;;;;;;13.20;99.90;;;;;;5073950;28;19909;-78
2023/12/15 12:42:33;;;;;;;;;;;13.20;99.90;;;;;;5072632;28;19938;-76
2023/12/15 12:44:58;;;;;;;;;;;13.10;99.90;;;;;;5080025;28;19960;-77
2023/12/15 12:47:24;;;;;;;;;;;13.10;99.90;;;;;;5072740;28;20043;-77
2023/12/15 12:49:49;;;;;;;;;;;13.10;99.90;;;;;;5069559;28;19919;-76
2023/12/15 12:52:16;;;;;;;;;;;12.80;99.90;;;;;;5068238;28;19917;-78
2023/12/15 12:54:42;;;;;;;;;;;12.80;99.90;;;;;;5064124;28;19965;-77
2023/12/15 12:57:09;;;;;;;;;;;12.80;99.90;;;;;;5067605;28;19909;-76
2023/12/15 12:59:35;;;;;;;;;;;12.70;99.90;;;;;;5073567;28;19909;-76
2023/12/15 13:02:01;;;;;;;;;;;12.80;99.90;;;;;;5076377;28;19939;-77
2023/12/15 13:04:26;;;;;;;;;;;12.60;99.90;;;;;;5070110;28;21444;-76
2023/12/15 13:06:52;;;;;;;;;;;12.70;99.90;;;;;;5058737;28;19963;-77
2023/12/15 13:09:18;;;;;;;;;;;12.70;99.90;;;;;;5058244;28;19973;-77
2023/12/15 13:11:45;;;;;;;;;;;12.70;99.90;;;;;;5057194;28;19908;-77
2023/12/15 13:14:11;;;;;;;;;;;12.70;99.90;;;;;;5080197;28;20011;-77
2023/12/15 13:16:36;;;;;;;;;;;12.80;99.90;;;;;;5076688;28;19951;-76
2023/12/15 13:19:02;;;;;;;;;;;12.80;99.90;;;;;;5057951;28;19919;-77
2023/12/15 13:21:27;;;;;;;;;;;12.60;99.90;;;;;;5077149;28;20286;-76
2023/12/15 13:23:53;;;;;;;;;;;12.60;99.90;;;;;;5075972;28;20003;-76
2023/12/15 13:26:19;;;;;;;;;;;12.70;99.90;;;;;;5058449;28;19964;-76
2023/12/15 13:28:44;;;;;;;;;;;12.60;99.90;;;;;;5072486;28;19913;-76
2023/12/15 13:31:10;;;;;;;;;;;12.60;99.90;;;;;;5049595;28;19936;-75
2023/12/15 13:33:37;;;;;;;;;;;12.80;99.90;;;;;;5059049;28;19917;-77
2023/12/15 13:36:03;;;;;;;;;;;12.60;99.90;;;;;;5055654;28;19909;-74
2023/12/15 13:38:28;;;;;;;;;;;12.60;99.90;;;;;;5055589;28;19951;-77
2023/12/15 13:40:56;;;;;;;;;;;12.60;99.90;;;;;;5076285;28;19932;-77
2023/12/15 13:43:22;;;;;;;;;;;12.60;99.90;;;;;;5061123;28;19913;-74
2023/12/15 13:45:52;;;;;;;;;;;12.60;99.90;;;;;;5039401;28;19913;-74
2023/12/15 13:48:17;;;;;;;;;;;12.40;99.90;;;;;;5055795;28;19909;-76
2023/12/15 13:50:43;;;;;;;;;;;12.30;99.90;;;;;;5054475;28;20395;-77
2023/12/15 13:53:08;;;;;;;;;;;12.30;99.90;;;;;;5049624;28;19919;-77
2023/12/15 13:55:34;;;;;;;;;;;12.30;99.90;;;;;;5045139;28;20375;-77
2023/12/15 13:57:59;;;;;;;;;;;12.30;99.90;;;;;;5056787;28;20283;-76
2023/12/15 14:00:25;;;;;;;;;;;12.30;99.90;;;;;;5041546;28;19909;-76
2023/12/15 14:02:51;;;;;;;;;;;12.30;99.90;;;;;;5055345;28;20435;-76
2023/12/15 14:05:17;;;;;;;;;;;12.40;99.90;;;;;;5055742;28;19913;-77
2023/12/15 14:07:42;;;;;;;;;;;12.40;99.90;;;;;;5055047;28;20275;-77
2023/12/15 14:10:11;;;;;;;;;;;12.30;99.90;;;;;;5055010;28;19909;-76
2023/12/15 14:12:36;;;;;;;;;;;12.30;99.90;;;;;;5056344;28;20352;-77
2023/12/15 14:15:02;;;;;;;;;;;12.20;99.90;;;;;;5058264;28;19955;-77
2023/12/15 14:17:30;;;;;;;;;;;12.10;99.90;;;;;;5075828;28;19912;-77